sensor_id;sensor_type;location;lat;lon;timestamp;P1;durP1;ratioP1;P2;durP2;ratioP2
14256;SDS011;7212;53.254;6.456;2022-10-16T00:01:47;5.53;;;2.40;;
14256;SDS011;7212;53.254;6.456;2022-10-16T00:04:13;3.13;;;2.10;;
14256;SDS011;7212;53.254;6.456;2022-10-16T00:06:39;2.47;;;1.65;;
14256;SDS011;7212;53.254;6.456;2022-10-16T00:09:05;4.82;;;2.28;;
14256;SDS011;7212;53.254;6.456;2022-10-16T00:11:34;4.90;;;1.90;;
14256;SDS011;7212;53.254;6.456;2022-10-16T00:14:02;3.83;;;1.80;;
14256;SDS011;7212;53.254;6.456;2022-10-16T00:16:30;3.35;;;1.65;;
14256;SDS011;7212;53.254;6.456;2022-10-16T00:18:56;3.17;;;1.80;;
14256;SDS011;7212;53.254;6.456;2022-10-16T00:21:23;3.03;;;1.80;;
14256;SDS011;7212;53.254;6.456;2022-10-16T00:23:52;2.70;;;1.80;;
14256;SDS011;7212;53.254;6.456;2022-10-16T00:26:19;4.93;;;1.75;;
14256;SDS011;7212;53.254;6.456;2022-10-16T00:28:49;4.43;;;1.90;;
14256;SDS011;7212;53.254;6.456;2022-10-16T00:31:16;1.98;;;1.70;;
14256;SDS011;7212;53.254;6.456;2022-10-16T00:33:43;3.90;;;1.70;;
14256;SDS011;7212;53.254;6.456;2022-10-16T00:36:10;3.13;;;1.88;;
14256;SDS011;7212;53.254;6.456;2022-10-16T00:38:37;2.70;;;1.67;;
14256;SDS011;7212;53.254;6.456;2022-10-16T00:41:04;3.08;;;1.90;;
14256;SDS011;7212;53.254;6.456;2022-10-16T00:43:36;3.45;;;1.60;;
14256;SDS011;7212;53.254;6.456;2022-10-16T00:46:08;2.22;;;1.65;;
14256;SDS011;7212;53.254;6.456;2022-10-16T00:48:52;3.15;;;1.75;;
14256;SDS011;7212;53.254;6.456;2022-10-16T00:51:21;3.33;;;1.80;;
14256;SDS011;7212;53.254;6.456;2022-10-16T00:53:50;4.47;;;1.77;;
14256;SDS011;7212;53.254;6.456;2022-10-16T00:56:16;3.75;;;1.80;;
14256;SDS011;7212;53.254;6.456;2022-10-16T00:58:42;2.80;;;1.70;;
14256;SDS011;7212;53.254;6.456;2022-10-16T01:01:08;2.88;;;1.67;;
14256;SDS011;7212;53.254;6.456;2022-10-16T01:03:35;3.03;;;1.80;;
14256;SDS011;7212;53.254;6.456;2022-10-16T01:11:23;2.38;;;1.52;;
14256;SDS011;7212;53.254;6.456;2022-10-16T01:13:57;3.60;;;1.60;;
14256;SDS011;7212;53.254;6.456;2022-10-16T01:19:31;4.00;;;1.60;;
14256;SDS011;7212;53.254;6.456;2022-10-16T01:22:07;2.85;;;1.65;;
14256;SDS011;7212;53.254;6.456;2022-10-16T01:24:48;5.20;;;2.08;;
14256;SDS011;7212;53.254;6.456;2022-10-16T01:27:25;2.72;;;1.90;;
14256;SDS011;7212;53.254;6.456;2022-10-16T01:29:54;3.83;;;1.90;;
14256;SDS011;7212;53.254;6.456;2022-10-16T01:32:33;2.95;;;1.73;;
14256;SDS011;7212;53.254;6.456;2022-10-16T01:35:30;2.30;;;1.63;;
14256;SDS011;7212;53.254;6.456;2022-10-16T01:40:32;4.05;;;1.75;;
14256;SDS011;7212;53.254;6.456;2022-10-16T01:43:12;2.53;;;1.50;;
14256;SDS011;7212;53.254;6.456;2022-10-16T01:45:42;1.75;;;1.55;;
14256;SDS011;7212;53.254;6.456;2022-10-16T01:48:10;3.88;;;1.67;;
14256;SDS011;7212;53.254;6.456;2022-10-16T01:50:39;3.53;;;1.75;;
14256;SDS011;7212;53.254;6.456;2022-10-16T01:53:08;3.30;;;1.70;;
14256;SDS011;7212;53.254;6.456;2022-10-16T01:55:38;3.90;;;1.67;;
14256;SDS011;7212;53.254;6.456;2022-10-16T01:58:08;3.30;;;1.75;;
14256;SDS011;7212;53.254;6.456;2022-10-16T02:00:36;4.55;;;1.73;;
14256;SDS011;7212;53.254;6.456;2022-10-16T02:03:04;2.45;;;2.00;;
14256;SDS011;7212;53.254;6.456;2022-10-16T02:05:33;2.75;;;1.88;;
14256;SDS011;7212;53.254;6.456;2022-10-16T02:08:03;3.33;;;1.90;;
14256;SDS011;7212;53.254;6.456;2022-10-16T02:10:29;2.38;;;1.42;;
14256;SDS011;7212;53.254;6.456;2022-10-16T02:13:29;2.47;;;1.73;;
14256;SDS011;7212;53.254;6.456;2022-10-16T02:16:02;2.10;;;1.67;;
14256;SDS011;7212;53.254;6.456;2022-10-16T02:18:28;3.30;;;1.70;;
14256;SDS011;7212;53.254;6.456;2022-10-16T02:20:59;2.75;;;1.83;;
14256;SDS011;7212;53.254;6.456;2022-10-16T02:23:35;4.57;;;1.80;;
14256;SDS011;7212;53.254;6.456;2022-10-16T02:26:24;2.85;;;1.83;;
14256;SDS011;7212;53.254;6.456;2022-10-16T02:28:55;3.03;;;1.73;;
14256;SDS011;7212;53.254;6.456;2022-10-16T02:31:31;2.80;;;1.80;;
14256;SDS011;7212;53.254;6.456;2022-10-16T02:34:00;2.30;;;1.77;;
14256;SDS011;7212;53.254;6.456;2022-10-16T02:36:28;4.55;;;1.92;;
14256;SDS011;7212;53.254;6.456;2022-10-16T02:38:54;3.15;;;1.80;;
14256;SDS011;7212;53.254;6.456;2022-10-16T02:41:21;3.63;;;1.90;;
14256;SDS011;7212;53.254;6.456;2022-10-16T02:43:48;2.72;;;1.70;;
14256;SDS011;7212;53.254;6.456;2022-10-16T02:46:14;3.53;;;1.95;;
14256;SDS011;7212;53.254;6.456;2022-10-16T02:48:40;1.60;;;1.50;;
14256;SDS011;7212;53.254;6.456;2022-10-16T02:51:06;2.75;;;1.88;;
14256;SDS011;7212;53.254;6.456;2022-10-16T02:53:31;2.45;;;1.70;;
14256;SDS011;7212;53.254;6.456;2022-10-16T02:55:57;2.30;;;1.50;;
14256;SDS011;7212;53.254;6.456;2022-10-16T02:58:22;2.33;;;1.70;;
14256;SDS011;7212;53.254;6.456;2022-10-16T03:00:48;3.10;;;1.70;;
14256;SDS011;7212;53.254;6.456;2022-10-16T03:03:13;2.53;;;1.70;;
14256;SDS011;7212;53.254;6.456;2022-10-16T03:05:39;2.40;;;1.83;;
14256;SDS011;7212;53.254;6.456;2022-10-16T03:08:05;3.60;;;1.80;;
14256;SDS011;7212;53.254;6.456;2022-10-16T03:10:30;1.88;;;1.65;;
14256;SDS011;7212;53.254;6.456;2022-10-16T03:12:56;2.00;;;1.83;;
14256;SDS011;7212;53.254;6.456;2022-10-16T03:15:21;2.25;;;1.65;;
14256;SDS011;7212;53.254;6.456;2022-10-16T03:17:47;2.78;;;2.00;;
14256;SDS011;7212;53.254;6.456;2022-10-16T03:20:13;1.98;;;1.77;;
14256;SDS011;7212;53.254;6.456;2022-10-16T03:22:38;2.45;;;1.88;;
14256;SDS011;7212;53.254;6.456;2022-10-16T03:25:04;3.38;;;1.80;;
14256;SDS011;7212;53.254;6.456;2022-10-16T03:27:30;1.90;;;1.67;;
14256;SDS011;7212;53.254;6.456;2022-10-16T03:29:56;4.25;;;1.88;;
14256;SDS011;7212;53.254;6.456;2022-10-16T03:32:21;2.92;;;1.90;;
14256;SDS011;7212;53.254;6.456;2022-10-16T03:34:47;2.15;;;1.73;;
14256;SDS011;7212;53.254;6.456;2022-10-16T03:37:13;1.83;;;1.67;;
14256;SDS011;7212;53.254;6.456;2022-10-16T03:39:38;2.55;;;1.50;;
14256;SDS011;7212;53.254;6.456;2022-10-16T03:42:04;3.53;;;1.75;;
14256;SDS011;7212;53.254;6.456;2022-10-16T03:44:30;2.88;;;1.40;;
14256;SDS011;7212;53.254;6.456;2022-10-16T03:46:55;3.03;;;1.60;;
14256;SDS011;7212;53.254;6.456;2022-10-16T03:49:21;2.78;;;1.80;;
14256;SDS011;7212;53.254;6.456;2022-10-16T03:51:46;2.58;;;1.80;;
14256;SDS011;7212;53.254;6.456;2022-10-16T03:54:12;3.65;;;2.00;;
14256;SDS011;7212;53.254;6.456;2022-10-16T03:56:38;2.35;;;1.58;;
14256;SDS011;7212;53.254;6.456;2022-10-16T03:59:03;4.32;;;1.60;;
14256;SDS011;7212;53.254;6.456;2022-10-16T04:01:29;6.30;;;2.10;;
14256;SDS011;7212;53.254;6.456;2022-10-16T04:03:54;1.77;;;1.63;;
14256;SDS011;7212;53.254;6.456;2022-10-16T04:06:20;2.70;;;1.77;;
14256;SDS011;7212;53.254;6.456;2022-10-16T04:08:46;2.28;;;1.70;;
14256;SDS011;7212;53.254;6.456;2022-10-16T04:11:11;2.75;;;1.77;;
14256;SDS011;7212;53.254;6.456;2022-10-16T04:13:37;2.13;;;1.83;;
14256;SDS011;7212;53.254;6.456;2022-10-16T04:16:02;1.90;;;1.48;;
14256;SDS011;7212;53.254;6.456;2022-10-16T04:18:28;2.22;;;1.45;;
14256;SDS011;7212;53.254;6.456;2022-10-16T04:20:54;1.40;;;1.30;;
14256;SDS011;7212;53.254;6.456;2022-10-16T04:23:20;2.25;;;1.70;;
14256;SDS011;7212;53.254;6.456;2022-10-16T04:25:47;3.00;;;1.80;;
14256;SDS011;7212;53.254;6.456;2022-10-16T04:28:13;3.53;;;1.92;;
14256;SDS011;7212;53.254;6.456;2022-10-16T04:30:39;1.80;;;1.60;;
14256;SDS011;7212;53.254;6.456;2022-10-16T04:33:04;3.25;;;1.77;;
14256;SDS011;7212;53.254;6.456;2022-10-16T04:35:30;2.67;;;2.00;;
14256;SDS011;7212;53.254;6.456;2022-10-16T04:37:59;2.00;;;1.90;;
14256;SDS011;7212;53.254;6.456;2022-10-16T04:40:24;2.00;;;1.50;;
14256;SDS011;7212;53.254;6.456;2022-10-16T04:42:50;2.10;;;1.73;;
14256;SDS011;7212;53.254;6.456;2022-10-16T04:45:16;3.45;;;1.75;;
14256;SDS011;7212;53.254;6.456;2022-10-16T04:47:41;2.50;;;1.80;;
14256;SDS011;7212;53.254;6.456;2022-10-16T04:50:07;2.10;;;1.83;;
14256;SDS011;7212;53.254;6.456;2022-10-16T04:52:33;2.28;;;1.95;;
14256;SDS011;7212;53.254;6.456;2022-10-16T04:54:59;2.20;;;1.83;;
14256;SDS011;7212;53.254;6.456;2022-10-16T04:57:27;2.72;;;1.73;;
14256;SDS011;7212;53.254;6.456;2022-10-16T04:59:53;2.85;;;1.85;;
14256;SDS011;7212;53.254;6.456;2022-10-16T05:02:19;3.70;;;1.90;;
14256;SDS011;7212;53.254;6.456;2022-10-16T05:04:44;2.65;;;1.65;;
14256;SDS011;7212;53.254;6.456;2022-10-16T05:07:10;2.00;;;1.60;;
14256;SDS011;7212;53.254;6.456;2022-10-16T05:09:36;3.45;;;1.63;;
14256;SDS011;7212;53.254;6.456;2022-10-16T05:12:02;2.45;;;1.80;;
14256;SDS011;7212;53.254;6.456;2022-10-16T05:14:28;2.25;;;2.05;;
14256;SDS011;7212;53.254;6.456;2022-10-16T05:16:54;2.53;;;2.10;;
14256;SDS011;7212;53.254;6.456;2022-10-16T05:19:20;2.58;;;1.95;;
14256;SDS011;7212;53.254;6.456;2022-10-16T05:21:45;2.58;;;1.98;;
14256;SDS011;7212;53.254;6.456;2022-10-16T05:24:11;3.45;;;2.10;;
14256;SDS011;7212;53.254;6.456;2022-10-16T05:26:36;2.78;;;2.00;;
14256;SDS011;7212;53.254;6.456;2022-10-16T05:29:02;2.00;;;1.80;;
14256;SDS011;7212;53.254;6.456;2022-10-16T05:31:28;2.35;;;2.03;;
14256;SDS011;7212;53.254;6.456;2022-10-16T05:33:57;2.63;;;1.83;;
14256;SDS011;7212;53.254;6.456;2022-10-16T05:36:27;2.45;;;2.20;;
14256;SDS011;7212;53.254;6.456;2022-10-16T05:38:52;2.75;;;2.15;;
14256;SDS011;7212;53.254;6.456;2022-10-16T05:41:18;2.38;;;1.95;;
14256;SDS011;7212;53.254;6.456;2022-10-16T05:43:48;2.75;;;1.90;;
14256;SDS011;7212;53.254;6.456;2022-10-16T05:46:14;2.95;;;2.13;;
14256;SDS011;7212;53.254;6.456;2022-10-16T05:48:40;1.65;;;1.55;;
14256;SDS011;7212;53.254;6.456;2022-10-16T05:51:07;1.95;;;1.75;;
14256;SDS011;7212;53.254;6.456;2022-10-16T05:53:34;2.78;;;2.13;;
14256;SDS011;7212;53.254;6.456;2022-10-16T05:56:01;2.35;;;1.88;;
14256;SDS011;7212;53.254;6.456;2022-10-16T05:58:28;3.30;;;2.20;;
14256;SDS011;7212;53.254;6.456;2022-10-16T06:01:10;3.25;;;1.88;;
14256;SDS011;7212;53.254;6.456;2022-10-16T06:03:37;4.93;;;2.22;;
14256;SDS011;7212;53.254;6.456;2022-10-16T06:06:16;4.03;;;2.30;;
14256;SDS011;7212;53.254;6.456;2022-10-16T06:08:43;2.25;;;2.03;;
14256;SDS011;7212;53.254;6.456;2022-10-16T06:11:11;3.70;;;2.17;;
14256;SDS011;7212;53.254;6.456;2022-10-16T06:13:42;2.45;;;2.10;;
14256;SDS011;7212;53.254;6.456;2022-10-16T06:16:08;2.83;;;2.00;;
14256;SDS011;7212;53.254;6.456;2022-10-16T06:18:35;2.67;;;2.30;;
14256;SDS011;7212;53.254;6.456;2022-10-16T06:21:06;4.95;;;2.63;;
14256;SDS011;7212;53.254;6.456;2022-10-16T06:23:36;4.28;;;2.50;;
14256;SDS011;7212;53.254;6.456;2022-10-16T06:26:06;4.40;;;2.38;;
14256;SDS011;7212;53.254;6.456;2022-10-16T06:28:33;3.90;;;2.47;;
14256;SDS011;7212;53.254;6.456;2022-10-16T06:30:59;4.20;;;2.70;;
14256;SDS011;7212;53.254;6.456;2022-10-16T06:33:25;4.15;;;2.40;;
14256;SDS011;7212;53.254;6.456;2022-10-16T06:35:51;3.83;;;2.33;;
14256;SDS011;7212;53.254;6.456;2022-10-16T06:38:17;3.67;;;2.42;;
14256;SDS011;7212;53.254;6.456;2022-10-16T06:40:42;5.38;;;2.88;;
14256;SDS011;7212;53.254;6.456;2022-10-16T06:43:08;2.65;;;2.20;;
14256;SDS011;7212;53.254;6.456;2022-10-16T06:45:33;3.33;;;2.53;;
14256;SDS011;7212;53.254;6.456;2022-10-16T06:47:59;3.45;;;2.47;;
14256;SDS011;7212;53.254;6.456;2022-10-16T06:50:24;6.40;;;2.75;;
14256;SDS011;7212;53.254;6.456;2022-10-16T06:52:50;2.42;;;2.22;;
14256;SDS011;7212;53.254;6.456;2022-10-16T06:55:16;3.17;;;2.65;;
14256;SDS011;7212;53.254;6.456;2022-10-16T06:57:42;3.20;;;2.58;;
14256;SDS011;7212;53.254;6.456;2022-10-16T07:00:08;3.22;;;2.72;;
14256;SDS011;7212;53.254;6.456;2022-10-16T07:02:34;3.50;;;2.45;;
14256;SDS011;7212;53.254;6.456;2022-10-16T07:05:00;4.22;;;2.25;;
14256;SDS011;7212;53.254;6.456;2022-10-16T07:07:26;3.25;;;2.50;;
14256;SDS011;7212;53.254;6.456;2022-10-16T07:09:51;3.28;;;2.20;;
14256;SDS011;7212;53.254;6.456;2022-10-16T07:12:17;4.65;;;2.42;;
14256;SDS011;7212;53.254;6.456;2022-10-16T07:14:43;4.70;;;2.22;;
14256;SDS011;7212;53.254;6.456;2022-10-16T07:17:08;3.35;;;2.20;;
14256;SDS011;7212;53.254;6.456;2022-10-16T07:19:34;4.22;;;2.10;;
14256;SDS011;7212;53.254;6.456;2022-10-16T07:22:00;3.95;;;2.70;;
14256;SDS011;7212;53.254;6.456;2022-10-16T07:24:26;3.05;;;2.10;;
14256;SDS011;7212;53.254;6.456;2022-10-16T07:26:51;3.65;;;2.08;;
14256;SDS011;7212;53.254;6.456;2022-10-16T07:29:18;3.50;;;2.10;;
14256;SDS011;7212;53.254;6.456;2022-10-16T07:31:46;5.15;;;2.42;;
14256;SDS011;7212;53.254;6.456;2022-10-16T07:34:13;3.00;;;1.95;;
14256;SDS011;7212;53.254;6.456;2022-10-16T07:36:39;3.83;;;2.22;;
14256;SDS011;7212;53.254;6.456;2022-10-16T07:39:05;4.57;;;2.13;;
14256;SDS011;7212;53.254;6.456;2022-10-16T07:41:31;3.00;;;1.92;;
14256;SDS011;7212;53.254;6.456;2022-10-16T07:43:58;4.53;;;2.20;;
14256;SDS011;7212;53.254;6.456;2022-10-16T07:46:26;4.00;;;2.20;;
14256;SDS011;7212;53.254;6.456;2022-10-16T07:48:52;3.60;;;2.20;;
14256;SDS011;7212;53.254;6.456;2022-10-16T07:51:18;2.58;;;2.13;;
14256;SDS011;7212;53.254;6.456;2022-10-16T07:53:46;3.40;;;2.28;;
14256;SDS011;7212;53.254;6.456;2022-10-16T07:56:12;2.40;;;2.13;;
14256;SDS011;7212;53.254;6.456;2022-10-16T07:58:38;3.30;;;2.20;;
14256;SDS011;7212;53.254;6.456;2022-10-16T08:01:04;4.43;;;2.47;;
14256;SDS011;7212;53.254;6.456;2022-10-16T08:03:35;3.00;;;2.30;;
14256;SDS011;7212;53.254;6.456;2022-10-16T08:06:01;3.08;;;2.33;;
14256;SDS011;7212;53.254;6.456;2022-10-16T08:08:27;2.72;;;2.28;;
14256;SDS011;7212;53.254;6.456;2022-10-16T08:10:53;3.47;;;2.70;;
14256;SDS011;7212;53.254;6.456;2022-10-16T08:13:19;3.70;;;2.28;;
14256;SDS011;7212;53.254;6.456;2022-10-16T08:15:45;5.47;;;2.50;;
14256;SDS011;7212;53.254;6.456;2022-10-16T08:18:12;4.82;;;2.50;;
14256;SDS011;7212;53.254;6.456;2022-10-16T08:20:39;3.10;;;2.42;;
14256;SDS011;7212;53.254;6.456;2022-10-16T08:23:05;2.78;;;2.58;;
14256;SDS011;7212;53.254;6.456;2022-10-16T08:25:33;3.88;;;2.58;;
14256;SDS011;7212;53.254;6.456;2022-10-16T08:28:00;3.45;;;2.70;;
14256;SDS011;7212;53.254;6.456;2022-10-16T08:30:29;5.38;;;2.65;;
14256;SDS011;7212;53.254;6.456;2022-10-16T08:32:54;3.38;;;2.30;;
14256;SDS011;7212;53.254;6.456;2022-10-16T08:35:20;5.35;;;2.55;;
14256;SDS011;7212;53.254;6.456;2022-10-16T08:37:46;3.83;;;3.00;;
14256;SDS011;7212;53.254;6.456;2022-10-16T08:40:30;3.45;;;2.45;;
14256;SDS011;7212;53.254;6.456;2022-10-16T08:48:46;3.97;;;2.60;;
14256;SDS011;7212;53.254;6.456;2022-10-16T08:51:24;5.22;;;2.47;;
14256;SDS011;7212;53.254;6.456;2022-10-16T08:53:57;4.50;;;2.20;;
14256;SDS011;7212;53.254;6.456;2022-10-16T08:56:26;4.70;;;2.42;;
14256;SDS011;7212;53.254;6.456;2022-10-16T08:58:53;3.22;;;2.30;;
14256;SDS011;7212;53.254;6.456;2022-10-16T09:01:20;4.18;;;1.95;;
14256;SDS011;7212;53.254;6.456;2022-10-16T09:04:01;3.78;;;2.15;;
14256;SDS011;7212;53.254;6.456;2022-10-16T09:07:00;4.75;;;2.33;;
14256;SDS011;7212;53.254;6.456;2022-10-16T09:09:41;3.80;;;2.30;;
14256;SDS011;7212;53.254;6.456;2022-10-16T09:15:20;4.35;;;2.03;;
14256;SDS011;7212;53.254;6.456;2022-10-16T09:23:36;3.88;;;1.92;;
14256;SDS011;7212;53.254;6.456;2022-10-16T09:26:03;5.90;;;2.40;;
14256;SDS011;7212;53.254;6.456;2022-10-16T09:28:30;5.57;;;2.40;;
14256;SDS011;7212;53.254;6.456;2022-10-16T09:30:56;5.32;;;2.22;;
14256;SDS011;7212;53.254;6.456;2022-10-16T09:33:23;4.07;;;1.88;;
14256;SDS011;7212;53.254;6.456;2022-10-16T09:35:54;6.97;;;2.35;;
14256;SDS011;7212;53.254;6.456;2022-10-16T09:38:27;6.35;;;2.30;;
14256;SDS011;7212;53.254;6.456;2022-10-16T09:40:58;6.57;;;2.35;;
14256;SDS011;7212;53.254;6.456;2022-10-16T09:43:32;11.25;;;2.72;;
14256;SDS011;7212;53.254;6.456;2022-10-16T09:48:48;7.88;;;2.33;;
14256;SDS011;7212;53.254;6.456;2022-10-16T09:51:17;7.55;;;2.50;;
14256;SDS011;7212;53.254;6.456;2022-10-16T09:53:44;6.97;;;2.20;;
14256;SDS011;7212;53.254;6.456;2022-10-16T09:56:12;4.40;;;1.90;;
14256;SDS011;7212;53.254;6.456;2022-10-16T09:58:58;8.18;;;2.50;;
14256;SDS011;7212;53.254;6.456;2022-10-16T10:01:29;7.40;;;2.40;;
14256;SDS011;7212;53.254;6.456;2022-10-16T10:04:00;6.75;;;2.63;;
14256;SDS011;7212;53.254;6.456;2022-10-16T10:06:31;8.23;;;2.42;;
14256;SDS011;7212;53.254;6.456;2022-10-16T10:14:23;8.38;;;2.30;;
14256;SDS011;7212;53.254;6.456;2022-10-16T10:16:53;8.48;;;2.20;;
14256;SDS011;7212;53.254;6.456;2022-10-16T10:19:40;7.45;;;2.45;;
14256;SDS011;7212;53.254;6.456;2022-10-16T10:27:47;6.00;;;2.10;;
14256;SDS011;7212;53.254;6.456;2022-10-16T10:30:19;7.47;;;2.17;;
14256;SDS011;7212;53.254;6.456;2022-10-16T10:41:07;7.32;;;2.50;;
14256;SDS011;7212;53.254;6.456;2022-10-16T10:44:02;7.07;;;2.45;;
14256;SDS011;7212;53.254;6.456;2022-10-16T10:52:52;12.07;;;2.72;;
14256;SDS011;7212;53.254;6.456;2022-10-16T10:55:38;10.18;;;2.65;;
14256;SDS011;7212;53.254;6.456;2022-10-16T10:58:10;9.80;;;2.65;;
14256;SDS011;7212;53.254;6.456;2022-10-16T11:01:15;6.05;;;1.95;;
14256;SDS011;7212;53.254;6.456;2022-10-16T11:06:44;4.80;;;2.13;;
14256;SDS011;7212;53.254;6.456;2022-10-16T11:09:16;4.78;;;1.90;;
14256;SDS011;7212;53.254;6.456;2022-10-16T11:11:51;9.55;;;2.65;;
14256;SDS011;7212;53.254;6.456;2022-10-16T11:14:36;7.38;;;2.47;;
14256;SDS011;7212;53.254;6.456;2022-10-16T11:20:31;7.03;;;2.10;;
14256;SDS011;7212;53.254;6.456;2022-10-16T11:23:02;6.47;;;2.38;;
14256;SDS011;7212;53.254;6.456;2022-10-16T11:25:36;9.10;;;2.47;;
14256;SDS011;7212;53.254;6.456;2022-10-16T11:30:50;7.63;;;2.33;;
14256;SDS011;7212;53.254;6.456;2022-10-16T11:33:30;6.40;;;2.38;;
14256;SDS011;7212;53.254;6.456;2022-10-16T11:50:28;7.30;;;2.28;;
14256;SDS011;7212;53.254;6.456;2022-10-16T11:53:04;7.05;;;2.58;;
14256;SDS011;7212;53.254;6.456;2022-10-16T11:55:43;7.60;;;2.58;;
14256;SDS011;7212;53.254;6.456;2022-10-16T11:58:15;9.82;;;2.88;;
14256;SDS011;7212;53.254;6.456;2022-10-16T12:00:57;7.22;;;2.28;;
14256;SDS011;7212;53.254;6.456;2022-10-16T12:09:01;5.82;;;2.40;;
14256;SDS011;7212;53.254;6.456;2022-10-16T12:16:38;8.57;;;2.05;;
14256;SDS011;7212;53.254;6.456;2022-10-16T12:19:16;7.25;;;2.20;;
14256;SDS011;7212;53.254;6.456;2022-10-16T12:21:43;5.07;;;1.88;;
14256;SDS011;7212;53.254;6.456;2022-10-16T12:24:20;6.70;;;2.10;;
14256;SDS011;7212;53.254;6.456;2022-10-16T12:26:46;7.28;;;2.20;;
14256;SDS011;7212;53.254;6.456;2022-10-16T12:29:14;7.07;;;2.15;;
14256;SDS011;7212;53.254;6.456;2022-10-16T12:31:59;6.68;;;2.33;;
14256;SDS011;7212;53.254;6.456;2022-10-16T12:36:50;6.50;;;2.60;;
14256;SDS011;7212;53.254;6.456;2022-10-16T12:39:20;4.72;;;1.92;;
14256;SDS011;7212;53.254;6.456;2022-10-16T12:44:51;7.93;;;2.20;;
14256;SDS011;7212;53.254;6.456;2022-10-16T12:47:21;7.88;;;2.40;;
14256;SDS011;7212;53.254;6.456;2022-10-16T12:49:56;5.18;;;1.70;;
14256;SDS011;7212;53.254;6.456;2022-10-16T12:55:02;4.78;;;2.03;;
14256;SDS011;7212;53.254;6.456;2022-10-16T12:57:38;6.05;;;2.17;;
14256;SDS011;7212;53.254;6.456;2022-10-16T13:00:28;6.45;;;2.00;;
14256;SDS011;7212;53.254;6.456;2022-10-16T13:08:58;6.28;;;2.17;;
14256;SDS011;7212;53.254;6.456;2022-10-16T13:17:49;5.15;;;1.70;;
14256;SDS011;7212;53.254;6.456;2022-10-16T13:20:28;5.25;;;2.22;;
14256;SDS011;7212;53.254;6.456;2022-10-16T13:23:21;7.40;;;1.90;;
14256;SDS011;7212;53.254;6.456;2022-10-16T13:28:34;5.57;;;1.90;;
14256;SDS011;7212;53.254;6.456;2022-10-16T13:31:02;4.88;;;1.83;;
14256;SDS011;7212;53.254;6.456;2022-10-16T13:33:36;5.63;;;1.90;;
14256;SDS011;7212;53.254;6.456;2022-10-16T13:36:05;6.30;;;2.08;;
14256;SDS011;7212;53.254;6.456;2022-10-16T13:38:32;4.20;;;1.70;;
14256;SDS011;7212;53.254;6.456;2022-10-16T13:41:20;5.22;;;1.65;;
14256;SDS011;7212;53.254;6.456;2022-10-16T13:43:46;4.90;;;1.98;;
14256;SDS011;7212;53.254;6.456;2022-10-16T13:46:16;6.38;;;2.38;;
14256;SDS011;7212;53.254;6.456;2022-10-16T13:48:42;6.32;;;2.22;;
14256;SDS011;7212;53.254;6.456;2022-10-16T13:51:15;5.78;;;1.98;;
14256;SDS011;7212;53.254;6.456;2022-10-16T13:53:42;4.95;;;2.20;;
14256;SDS011;7212;53.254;6.456;2022-10-16T13:56:11;4.97;;;1.55;;
14256;SDS011;7212;53.254;6.456;2022-10-16T13:58:41;5.03;;;1.90;;
14256;SDS011;7212;53.254;6.456;2022-10-16T14:03:45;4.45;;;1.80;;
14256;SDS011;7212;53.254;6.456;2022-10-16T14:06:13;5.95;;;2.17;;
14256;SDS011;7212;53.254;6.456;2022-10-16T14:08:45;4.90;;;2.08;;
14256;SDS011;7212;53.254;6.456;2022-10-16T14:11:19;4.88;;;2.17;;
14256;SDS011;7212;53.254;6.456;2022-10-16T14:13:49;4.82;;;1.88;;
14256;SDS011;7212;53.254;6.456;2022-10-16T14:16:34;5.40;;;2.17;;
14256;SDS011;7212;53.254;6.456;2022-10-16T14:21:27;5.38;;;2.10;;
14256;SDS011;7212;53.254;6.456;2022-10-16T14:23:53;4.28;;;1.88;;
14256;SDS011;7212;53.254;6.456;2022-10-16T14:26:20;7.43;;;1.83;;
14256;SDS011;7212;53.254;6.456;2022-10-16T14:28:49;4.93;;;1.92;;
14256;SDS011;7212;53.254;6.456;2022-10-16T14:31:30;6.13;;;2.40;;
14256;SDS011;7212;53.254;6.456;2022-10-16T14:33:57;4.57;;;2.20;;
14256;SDS011;7212;53.254;6.456;2022-10-16T14:36:24;4.72;;;2.00;;
14256;SDS011;7212;53.254;6.456;2022-10-16T14:41:29;4.20;;;1.90;;
14256;SDS011;7212;53.254;6.456;2022-10-16T14:43:57;4.90;;;1.80;;
14256;SDS011;7212;53.254;6.456;2022-10-16T14:46:29;5.45;;;2.15;;
14256;SDS011;7212;53.254;6.456;2022-10-16T14:51:35;6.80;;;2.13;;
14256;SDS011;7212;53.254;6.456;2022-10-16T14:54:02;7.05;;;2.13;;
14256;SDS011;7212;53.254;6.456;2022-10-16T14:56:33;5.22;;;1.73;;
14256;SDS011;7212;53.254;6.456;2022-10-16T14:59:12;4.18;;;1.73;;
14256;SDS011;7212;53.254;6.456;2022-10-16T15:01:48;4.75;;;1.70;;
14256;SDS011;7212;53.254;6.456;2022-10-16T15:04:14;5.00;;;2.17;;
14256;SDS011;7212;53.254;6.456;2022-10-16T15:06:40;4.88;;;2.10;;
14256;SDS011;7212;53.254;6.456;2022-10-16T15:09:06;3.70;;;1.80;;
14256;SDS011;7212;53.254;6.456;2022-10-16T15:11:32;4.07;;;1.60;;
14256;SDS011;7212;53.254;6.456;2022-10-16T15:13:58;3.58;;;1.48;;
14256;SDS011;7212;53.254;6.456;2022-10-16T15:16:23;4.90;;;1.98;;
14256;SDS011;7212;53.254;6.456;2022-10-16T15:18:49;7.75;;;2.22;;
14256;SDS011;7212;53.254;6.456;2022-10-16T15:21:28;5.07;;;2.00;;
14256;SDS011;7212;53.254;6.456;2022-10-16T15:23:56;6.13;;;2.00;;
14256;SDS011;7212;53.254;6.456;2022-10-16T15:26:22;3.88;;;1.90;;
14256;SDS011;7212;53.254;6.456;2022-10-16T15:28:49;3.90;;;1.85;;
14256;SDS011;7212;53.254;6.456;2022-10-16T15:31:14;4.55;;;1.88;;
14256;SDS011;7212;53.254;6.456;2022-10-16T15:33:40;5.30;;;1.85;;
14256;SDS011;7212;53.254;6.456;2022-10-16T15:36:06;5.32;;;1.70;;
14256;SDS011;7212;53.254;6.456;2022-10-16T15:38:32;2.58;;;1.40;;
14256;SDS011;7212;53.254;6.456;2022-10-16T15:40:58;4.05;;;1.92;;
14256;SDS011;7212;53.254;6.456;2022-10-16T15:43:24;3.45;;;1.58;;
14256;SDS011;7212;53.254;6.456;2022-10-16T15:46:03;6.50;;;2.20;;
14256;SDS011;7212;53.254;6.456;2022-10-16T15:48:31;6.03;;;2.10;;
14256;SDS011;7212;53.254;6.456;2022-10-16T15:50:57;3.90;;;1.70;;
14256;SDS011;7212;53.254;6.456;2022-10-16T15:53:23;3.58;;;1.75;;
14256;SDS011;7212;53.254;6.456;2022-10-16T15:55:48;3.70;;;1.77;;
14256;SDS011;7212;53.254;6.456;2022-10-16T15:58:14;4.65;;;1.70;;
14256;SDS011;7212;53.254;6.456;2022-10-16T16:00:40;4.20;;;1.65;;
14256;SDS011;7212;53.254;6.456;2022-10-16T16:03:05;5.53;;;1.80;;
14256;SDS011;7212;53.254;6.456;2022-10-16T16:05:31;5.22;;;1.67;;
14256;SDS011;7212;53.254;6.456;2022-10-16T16:07:58;4.65;;;1.88;;
14256;SDS011;7212;53.254;6.456;2022-10-16T16:10:24;4.10;;;1.80;;
14256;SDS011;7212;53.254;6.456;2022-10-16T16:12:50;4.90;;;1.80;;
14256;SDS011;7212;53.254;6.456;2022-10-16T16:15:18;4.53;;;1.90;;
14256;SDS011;7212;53.254;6.456;2022-10-16T16:17:45;5.40;;;1.98;;
14256;SDS011;7212;53.254;6.456;2022-10-16T16:20:11;3.92;;;1.90;;
14256;SDS011;7212;53.254;6.456;2022-10-16T16:22:37;4.18;;;1.60;;
14256;SDS011;7212;53.254;6.456;2022-10-16T16:25:02;4.55;;;2.05;;
14256;SDS011;7212;53.254;6.456;2022-10-16T16:27:28;6.63;;;1.95;;
14256;SDS011;7212;53.254;6.456;2022-10-16T16:29:57;2.83;;;1.65;;
14256;SDS011;7212;53.254;6.456;2022-10-16T16:32:23;5.65;;;2.00;;
14256;SDS011;7212;53.254;6.456;2022-10-16T16:34:49;3.95;;;1.70;;
14256;SDS011;7212;53.254;6.456;2022-10-16T16:37:15;4.10;;;1.83;;
14256;SDS011;7212;53.254;6.456;2022-10-16T16:39:40;4.32;;;1.63;;
14256;SDS011;7212;53.254;6.456;2022-10-16T16:42:06;4.28;;;1.90;;
14256;SDS011;7212;53.254;6.456;2022-10-16T16:44:32;3.90;;;1.70;;
14256;SDS011;7212;53.254;6.456;2022-10-16T16:47:00;5.22;;;2.03;;
14256;SDS011;7212;53.254;6.456;2022-10-16T16:49:27;3.17;;;1.77;;
14256;SDS011;7212;53.254;6.456;2022-10-16T16:51:52;5.10;;;2.03;;
14256;SDS011;7212;53.254;6.456;2022-10-16T16:54:19;5.70;;;2.00;;
14256;SDS011;7212;53.254;6.456;2022-10-16T16:56:45;4.97;;;2.35;;
14256;SDS011;7212;53.254;6.456;2022-10-16T16:59:14;4.55;;;2.30;;
14256;SDS011;7212;53.254;6.456;2022-10-16T17:01:42;3.90;;;2.40;;
14256;SDS011;7212;53.254;6.456;2022-10-16T17:04:08;5.00;;;2.72;;
14256;SDS011;7212;53.254;6.456;2022-10-16T17:06:35;5.45;;;3.00;;
14256;SDS011;7212;53.254;6.456;2022-10-16T17:09:02;5.20;;;3.15;;
14256;SDS011;7212;53.254;6.456;2022-10-16T17:11:29;5.38;;;3.40;;
14256;SDS011;7212;53.254;6.456;2022-10-16T17:13:55;5.95;;;3.42;;